Time;durP1;ratioP1;P1;durP2;ratioP2;P2;SDS_P1;SDS_P2;PMS_P1;PMS_P2;Temp;Humidity;BMP_temperature;BMP_pressure;BME280_temperature;BME280_humidity;BME280_pressure;Samples;Min_cycle;Max_cycle;Signal;HPM_P1;HPM_P2
2023/07/18 00:00:18;;;;;;;4.28;3.25;;;;;;;23.46;81.43;98915.56;4486064;31;20119;-66
2023/07/18 00:02:46;;;;;;;3.90;2.92;;;;;;;23.42;81.63;98927.72;4485819;31;20096;-67
2023/07/18 00:05:14;;;;;;;5.55;3.03;;;;;;;23.32;82.16;98920.19;4485936;31;20438;-66
2023/07/18 00:07:42;;;;;;;2.97;2.47;;;;;;;23.34;82.09;98920.78;4485768;31;20160;-66
2023/07/18 00:10:10;;;;;;;5.05;2.92;;;;;;;23.35;81.94;98922.41;4485704;31;20157;-66
2023/07/18 00:12:39;;;;;;;4.72;2.83;;;;;;;23.32;82.10;98931.69;4485763;31;20099;-66
2023/07/18 00:15:09;;;;;;;4.82;3.10;;;;;;;23.35;81.77;98935.78;4485362;31;20858;-66
2023/07/18 00:17:39;;;;;;;3.60;2.67;;;;;;;23.33;81.54;98932.50;4485618;31;20406;-66
2023/07/18 00:20:12;;;;;;;4.25;2.97;;;;;;;23.42;80.95;98928.50;4485492;31;20079;-66
2023/07/18 00:22:40;;;;;;;4.57;2.78;;;;;;;23.46;80.30;98928.91;4485559;31;20104;-66
2023/07/18 00:25:13;;;;;;;3.85;2.78;;;;;;;23.54;79.62;98920.63;4485582;31;20149;-67
2023/07/18 00:27:41;;;;;;;3.57;2.73;;;;;;;23.51;79.90;98926.41;4485672;31;20443;-66
2023/07/18 00:30:14;;;;;;;4.05;2.72;;;;;;;23.58;79.29;98927.19;4485457;31;20267;-67
2023/07/18 00:32:44;;;;;;;5.05;3.20;;;;;;;23.64;79.15;98920.16;4485394;31;20119;-66
2023/07/18 00:35:12;;;;;;;3.75;2.80;;;;;;;23.62;79.13;98911.50;4485569;31;20087;-66
2023/07/18 00:37:41;;;;;;;3.50;2.75;;;;;;;23.70;78.91;98912.06;4485393;32;20141;-67
2023/07/18 00:40:12;;;;;;;2.90;2.55;;;;;;;23.67;78.97;98919.72;4485509;31;20119;-67
2023/07/18 00:42:41;;;;;;;3.17;2.55;;;;;;;23.71;78.56;98923.59;4485390;31;20085;-67
2023/07/18 00:45:09;;;;;;;2.83;2.50;;;;;;;23.69;78.59;98914.94;4485718;31;20160;-66
2023/07/18 00:47:40;;;;;;;3.53;2.87;;;;;;;23.51;79.34;98913.03;4485106;32;20091;-66
2023/07/18 00:50:17;;;;;;;4.37;2.42;;;;;;;23.43;79.61;98913.31;4485081;31;20111;-67
2023/07/18 00:52:48;;;;;;;5.55;3.00;;;;;;;23.39;79.64;98912.91;4485201;31;20629;-66
2023/07/18 00:55:16;;;;;;;3.72;2.53;;;;;;;23.33;80.11;98916.44;4485442;31;20467;-66
2023/07/18 00:57:45;;;;;;;4.28;2.75;;;;;;;23.25;80.75;98917.53;4485161;31;20113;-67
2023/07/18 01:00:14;;;;;;;4.10;2.80;;;;;;;23.15;81.62;98914.50;4485316;31;20447;-67
2023/07/18 01:02:45;;;;;;;3.15;2.80;;;;;;;23.09;82.47;98924.22;4485334;31;20459;-67
2023/07/18 01:05:18;;;;;;;4.53;2.85;;;;;;;23.14;82.98;98923.59;4485393;31;20485;-67
2023/07/18 01:07:47;;;;;;;3.22;2.65;;;;;;;23.09;84.00;98926.91;4485226;31;20134;-67
2023/07/18 01:10:25;;;;;;;3.15;2.67;;;;;;;23.02;84.84;98928.75;4485504;31;20095;-67
2023/07/18 01:12:58;;;;;;;4.28;2.80;;;;;;;22.94;85.44;98915.66;4485163;31;20119;-66
2023/07/18 01:15:28;;;;;;;3.58;3.00;;;;;;;22.88;85.84;98917.31;4469692;32;20149;-67
2023/07/18 01:17:55;;;;;;;4.95;3.00;;;;;;;22.85;85.87;98907.88;4469361;32;20081;-67
2023/07/18 01:20:26;;;;;;;5.30;3.05;;;;;;;22.84;86.00;98906.22;4469794;32;20499;-66
2023/07/18 01:22:59;;;;;;;3.75;2.75;;;;;;;22.84;86.67;98900.88;4469262;32;20163;-67
2023/07/18 01:25:27;;;;;;;3.53;3.03;;;;;;;22.86;87.02;98898.84;4469525;32;20093;-67
2023/07/18 01:27:55;;;;;;;4.18;3.10;;;;;;;22.86;87.24;98898.84;4469311;32;20455;-66
2023/07/18 01:30:25;;;;;;;3.83;3.17;;;;;;;22.90;87.77;98887.72;4469379;32;20084;-66
2023/07/18 01:33:04;;;;;;;5.00;3.22;;;;;;;22.87;88.43;98892.44;4469243;32;20146;-67
2023/07/18 01:35:32;;;;;;;4.18;2.87;;;;;;;22.86;89.00;98888.16;4469461;32;20103;-67
2023/07/18 01:38:00;;;;;;;10.77;3.45;;;;;;;22.86;89.07;98882.81;4469112;32;20089;-66
2023/07/18 01:40:28;;;;;;;3.95;3.17;;;;;;;22.91;89.01;98889.34;4469201;32;20420;-66
2023/07/18 01:42:57;;;;;;;4.47;3.17;;;;;;;22.84;90.09;98886.72;4469049;32;20180;-66
2023/07/18 01:45:27;;;;;;;4.95;3.33;;;;;;;22.93;90.31;98887.28;4469569;32;20159;-66
2023/07/18 01:47:56;;;;;;;6.18;3.75;;;;;;;22.93;91.04;98897.97;4469030;32;20093;-66
2023/07/18 01:50:25;;;;;;;5.18;3.67;;;;;;;22.97;91.71;98893.84;4469010;32;20548;-66
2023/07/18 01:52:53;;;;;;;5.68;3.70;;;;;;;23.02;91.99;98902.03;4483930;32;20426;-66
2023/07/18 01:55:20;;;;;;;8.00;4.00;;;;;;;23.04;92.70;98891.94;4484916;32;20099;-66
2023/07/18 01:57:49;;;;;;;5.50;3.85;;;;;;;23.12;92.06;98897.06;4484590;31;20131;-66
2023/07/18 02:00:19;;;;;;;6.28;3.70;;;;;;;23.09;92.28;98902.84;4483472;31;20093;-66
2023/07/18 02:02:49;;;;;;;4.55;3.40;;;;;;;23.13;92.20;98901.38;4484637;31;20168;-66
2023/07/18 02:05:19;;;;;;;7.18;3.50;;;;;;;23.22;91.36;98912.63;4485039;31;20485;-66
2023/07/18 02:07:47;;;;;;;4.47;3.72;;;;;;;23.21;91.35;98911.81;4484715;31;20100;-66
2023/07/18 02:10:19;;;;;;;5.20;3.53;;;;;;;23.24;91.47;98925.78;4484626;31;20505;-66
2023/07/18 02:12:49;;;;;;;4.47;3.60;;;;;;;23.18;92.30;98914.06;4484822;31;20471;-66
2023/07/18 02:15:16;;;;;;;4.12;3.20;;;;;;;23.14;92.50;98919.03;4484877;31;20084;-67
2023/07/18 02:17:45;;;;;;;4.28;3.22;;;;;;;23.04;92.70;98926.69;4484555;31;20152;-66
2023/07/18 02:20:14;;;;;;;4.20;3.22;;;;;;;22.98;92.62;98930.22;4484568;31;20156;-66
2023/07/18 02:22:43;;;;;;;5.07;3.42;;;;;;;22.93;92.75;98930.03;4484636;31;20490;-67
2023/07/18 02:25:12;;;;;;;5.75;4.10;;;;;;;22.85;93.04;98939.94;4484585;31;20093;-67
2023/07/18 02:27:40;;;;;;;5.57;3.28;;;;;;;22.80;93.24;98946.94;4484480;31;20510;-66
2023/07/18 02:30:10;;;;;;;9.00;3.70;;;;;;;22.77;93.44;98942.88;4484354;31;20089;-66
2023/07/18 02:32:43;;;;;;;5.60;3.35;;;;;;;22.77;93.30;98945.53;4484487;31;20107;-66
2023/07/18 02:35:12;;;;;;;7.68;3.97;;;;;;;22.84;92.70;98943.63;4484442;31;20118;-66
2023/07/18 02:37:40;;;;;;;5.68;3.72;;;;;;;22.93;91.89;98938.88;4484905;32;20143;-66
2023/07/18 02:40:09;;;;;;;4.65;2.95;;;;;;;22.96;91.54;98948.31;4484270;31;20135;-66
2023/07/18 02:42:38;;;;;;;4.82;3.47;;;;;;;22.99;91.35;98942.53;4484250;31;20100;-66
2023/07/18 02:45:08;;;;;;;5.53;2.90;;;;;;;22.96;91.43;98940.31;4484251;32;20122;-67
2023/07/18 02:47:38;;;;;;;4.05;3.33;;;;;;;22.92;91.68;98947.09;4484539;32;20077;-67
2023/07/18 02:50:07;;;;;;;5.03;3.47;;;;;;;22.89;92.13;98956.34;4484002;32;20093;-66
2023/07/18 02:52:35;;;;;;;5.43;3.72;;;;;;;22.90;92.24;98958.00;4483843;32;20148;-66
2023/07/18 02:55:03;;;;;;;6.45;3.67;;;;;;;22.96;92.08;98959.81;4484199;31;20122;-66
2023/07/18 02:57:31;;;;;;;5.40;3.75;;;;;;;22.91;92.63;98967.66;4484174;31;20096;-66
2023/07/18 02:59:59;;;;;;;5.28;3.42;;;;;;;22.91;92.75;98965.00;4484306;31;20085;-67
2023/07/18 03:02:28;;;;;;;4.10;3.20;;;;;;;22.97;92.44;98974.00;4484371;31;20169;-67
2023/07/18 03:04:56;;;;;;;7.85;3.95;;;;;;;22.94;92.37;98979.78;4484031;31;20096;-66
2023/07/18 03:07:24;;;;;;;4.20;3.35;;;;;;;22.99;92.37;98982.63;4483904;32;20533;-67
2023/07/18 03:09:51;;;;;;;3.90;3.12;;;;;;;23.04;92.13;98977.44;4483825;32;20088;-66
2023/07/18 03:12:21;;;;;;;4.78;3.70;;;;;;;22.96;92.35;98980.37;4485553;32;20126;-67
2023/07/18 03:14:49;;;;;;;4.80;4.00;;;;;;;22.95;92.50;98973.38;4486161;31;20091;-67
2023/07/18 03:17:17;;;;;;;4.87;3.42;;;;;;;22.97;92.36;98974.00;4486188;31;21153;-66
2023/07/18 03:19:44;;;;;;;11.25;3.85;;;;;;;22.99;92.38;98961.25;4486123;31;20092;-66
2023/07/18 03:22:13;;;;;;;7.28;3.55;;;;;;;22.98;92.39;98968.44;4485973;31;20119;-66
2023/07/18 03:24:40;;;;;;;7.05;3.67;;;;;;;23.00;92.53;98961.03;4485761;31;20092;-66
2023/07/18 03:27:08;;;;;;;4.35;3.50;;;;;;;22.93;92.86;98962.09;4485982;32;20092;-66
2023/07/18 03:29:35;;;;;;;6.05;3.78;;;;;;;22.94;92.97;98964.56;4485826;31;20100;-66
2023/07/18 03:32:03;;;;;;;4.37;3.35;;;;;;;23.00;92.32;98962.91;4486098;31;20114;-67
2023/07/18 03:34:32;;;;;;;5.85;3.30;;;;;;;23.02;92.26;98964.31;4485935;31;20454;-66
2023/07/18 03:37:00;;;;;;;5.93;3.60;;;;;;;23.09;91.63;98958.09;4486086;31;20093;-66
2023/07/18 03:39:27;;;;;;;7.72;3.25;;;;;;;23.19;91.13;98961.16;4486113;31;20148;-67
2023/07/18 03:41:55;;;;;;;4.03;2.90;;;;;;;23.24;90.26;98968.53;4485901;31;20108;-66
2023/07/18 03:44:22;;;;;;;4.15;3.15;;;;;;;23.28;89.89;98965.22;4485835;31;20084;-67
2023/07/18 03:46:50;;;;;;;4.43;3.35;;;;;;;23.24;90.28;98965.88;4485681;31;20101;-67
2023/07/18 03:49:30;;;;;;;5.20;3.62;;;;;;;23.30;89.69;98962.31;4485658;31;20096;-67
2023/07/18 03:51:57;;;;;;;4.05;3.30;;;;;;;23.29;89.88;98982.09;4485527;32;20486;-67
2023/07/18 03:54:25;;;;;;;9.45;3.40;;;;;;;23.18;90.17;98979.06;4485987;32;20088;-66
2023/07/18 03:56:53;;;;;;;6.22;3.95;;;;;;;23.25;89.79;98981.69;4485593;32;20476;-67
2023/07/18 03:59:21;;;;;;;5.50;3.35;;;;;;;23.33;89.14;98985.97;4485910;32;20092;-66
2023/07/18 04:01:48;;;;;;;5.90;3.60;;;;;;;23.44;88.53;98987.13;4485524;31;20157;-66
2023/07/18 04:04:16;;;;;;;7.22;3.50;;;;;;;23.50;88.10;98978.25;4485805;31;20110;-66
2023/07/18 04:06:44;;;;;;;5.90;3.62;;;;;;;23.54;87.82;98980.28;4484831;31;20089;-68
2023/07/18 04:09:12;;;;;;;3.72;3.40;;;;;;;23.60;87.10;98983.12;4485533;32;20097;-67
2023/07/18 04:11:43;;;;;;;7.35;3.50;;;;;;;23.72;86.17;98981.38;4485196;31;20108;-67
2023/07/18 04:14:10;;;;;;;4.45;3.28;;;;;;;23.74;85.57;98974.78;4485670;31;20088;-67
2023/07/18 04:16:37;;;;;;;3.83;3.42;;;;;;;23.83;85.03;98977.19;4485519;31;20096;-67
2023/07/18 04:19:07;;;;;;;5.75;3.33;;;;;;;23.99;84.60;98986.56;4485752;31;20111;-67
2023/07/18 04:21:35;;;;;;;7.82;3.85;;;;;;;24.07;83.39;98983.59;4484722;31;20833;-67
2023/07/18 04:24:04;;;;;;;7.18;3.80;;;;;;;24.15;82.72;98991.34;4483936;31;20100;-67
2023/07/18 04:26:34;;;;;;;4.57;3.30;;;;;;;24.15;83.05;98994.03;4485491;32;20724;-67
2023/07/18 04:29:04;;;;;;;6.32;3.22;;;;;;;24.25;82.24;98990.84;4483501;32;20085;-66
2023/07/18 04:31:31;;;;;;;5.30;3.92;;;;;;;24.34;82.10;98999.41;4482994;31;20100;-67
2023/07/18 04:33:59;;;;;;;8.25;4.62;;;;;;;24.39;81.27;98995.03;4484546;31;20571;-67
2023/07/18 04:36:27;;;;;;;5.95;3.33;;;;;;;24.46;80.28;98997.63;4484025;31;20108;-67
2023/07/18 04:38:55;;;;;;;4.85;3.33;;;;;;;24.49;79.47;98993.69;4484700;31;20131;-67
2023/07/18 04:41:23;;;;;;;5.15;3.00;;;;;;;24.53;79.50;98990.34;4485136;31;20239;-67
2023/07/18 04:43:51;;;;;;;5.07;3.33;;;;;;;24.52;79.30;98995.94;4485424;31;20084;-67
2023/07/18 04:46:19;;;;;;;6.55;3.50;;;;;;;24.51;79.06;98997.81;4483653;32;20131;-67
2023/07/18 04:48:47;;;;;;;6.72;3.58;;;;;;;24.56;78.97;99000.63;4484321;31;20085;-66
2023/07/18 04:51:16;;;;;;;9.25;3.85;;;;;;;24.51;78.58;99005.84;4483254;31;20112;-67
2023/07/18 04:53:45;;;;;;;5.75;3.72;;;;;;;24.68;78.35;99011.44;4482914;32;20095;-67
2023/07/18 04:56:13;;;;;;;6.10;3.47;;;;;;;24.73;78.56;99019.63;4484909;31;20455;-67
2023/07/18 04:58:40;;;;;;;3.90;3.50;;;;;;;24.79;78.58;99013.38;4484951;31;20088;-66
2023/07/18 05:01:09;;;;;;;6.95;4.07;;;;;;;24.72;79.11;99020.66;4484620;31;20161;-66
2023/07/18 05:03:36;;;;;;;5.72;3.62;;;;;;;24.84;77.60;99010.00;4484804;32;20153;-66
2023/07/18 05:06:24;;;;;;;7.05;4.97;;;;;;;24.79;78.06;99012.56;4483379;31;20103;-66
2023/07/18 05:08:53;;;;;;;8.15;3.58;;;;;;;24.88;77.60;99016.56;4483599;31;20167;-66
2023/07/18 05:11:20;;;;;;;5.32;3.45;;;;;;;25.01;76.76;99025.50;4482633;31;20484;-67
2023/07/18 05:13:48;;;;;;;5.82;3.40;;;;;;;25.18;76.42;99031.03;4483192;31;20147;-67
2023/07/18 05:16:15;;;;;;;6.03;3.90;;;;;;;25.14;75.98;99033.37;4483759;32;20101;-66
2023/07/18 05:18:42;;;;;;;4.20;3.67;;;;;;;25.20;76.06;99037.81;4485044;32;20064;-66
2023/07/18 05:21:10;;;;;;;3.90;3.45;;;;;;;25.09;77.55;99041.28;4483556;32;20138;-67
2023/07/18 05:23:37;;;;;;;6.47;3.40;;;;;;;25.14;76.96;99034.19;4483882;31;20131;-66
2023/07/18 05:26:08;;;;;;;6.53;3.78;;;;;;;25.26;76.70;99028.06;4484469;31;20084;-66
2023/07/18 05:28:35;;;;;;;7.28;3.62;;;;;;;25.28;78.13;99034.00;4484391;32;20088;-66
2023/07/18 05:31:08;;;;;;;5.62;3.87;;;;;;;25.23;77.72;99032.00;4483075;32;20135;-66
2023/07/18 05:33:35;;;;;;;6.35;4.10;;;;;;;25.20;76.59;99032.47;4485024;31;20147;-67
2023/07/18 05:36:02;;;;;;;4.40;3.50;;;;;;;25.30;77.94;99034.66;4484267;31;20431;-67
2023/07/18 05:38:30;;;;;;;6.00;3.90;;;;;;;25.30;76.25;99032.78;4484502;32;20221;-67
2023/07/18 05:40:57;;;;;;;7.35;3.70;;;;;;;25.45;76.41;99036.91;4484682;31;20088;-66
2023/07/18 05:43:25;;;;;;;4.82;3.55;;;;;;;25.36;76.31;99033.75;4484885;31;20169;-67
2023/07/18 05:45:52;;;;;;;7.20;3.95;;;;;;;25.52;75.68;99026.09;4484071;32;20142;-66
2023/07/18 05:48:21;;;;;;;5.45;3.70;;;;;;;25.61;74.94;99030.91;4484400;32;20108;-66
2023/07/18 05:50:48;;;;;;;6.65;3.50;;;;;;;25.55;74.23;99028.31;4484074;31;20155;-67
2023/07/18 05:53:16;;;;;;;7.72;3.90;;;;;;;25.52;73.38;99034.94;4476608;31;20161;-67
2023/07/18 05:55:44;;;;;;;6.12;3.60;;;;;;;25.45;74.73;99034.22;4469130;32;20091;-67
2023/07/18 05:58:11;;;;;;;4.75;3.58;;;;;;;25.56;73.41;99038.03;4479696;31;20097;-66
2023/07/18 06:00:39;;;;;;;7.62;3.90;;;;;;;25.52;75.11;99036.81;4480792;31;20144;-67
2023/07/18 06:03:07;;;;;;;5.80;3.90;;;;;;;25.69;74.22;99043.16;4481394;31;20499;-67
2023/07/18 06:05:34;;;;;;;5.53;3.87;;;;;;;25.82;72.68;99048.34;4475468;32;20092;-67
2023/07/18 06:08:03;;;;;;;4.53;3.58;;;;;;;25.84;72.45;99048.09;4481137;31;20088;-67
2023/07/18 06:10:31;;;;;;;6.12;4.00;;;;;;;25.84;71.20;99053.47;4480048;31;20356;-67
2023/07/18 06:12:58;;;;;;;9.25;3.62;;;;;;;26.06;70.58;99052.94;4481277;31;20114;-67
2023/07/18 06:15:27;;;;;;;6.32;3.30;;;;;;;26.32;68.61;99047.16;4480165;31;20108;-67
2023/07/18 06:17:55;;;;;;;4.00;3.45;;;;;;;26.73;65.20;99052.66;4478884;31;20128;-67
2023/07/18 06:20:22;;;;;;;4.60;3.53;;;;;;;26.84;63.62;99059.06;4480436;31;20136;-67
2023/07/18 06:22:50;;;;;;;6.25;3.33;;;;;;;26.40;64.86;99059.41;4480450;31;20153;-67
2023/07/18 06:25:17;;;;;;;4.40;3.10;;;;;;;26.13;66.39;99070.63;4481277;32;20123;-67
2023/07/18 06:27:45;;;;;;;6.72;3.35;;;;;;;26.20;66.58;99065.13;4481013;31;20524;-67
2023/07/18 06:30:13;;;;;;;3.97;3.20;;;;;;;26.33;66.34;99072.97;4479415;31;20163;-67
2023/07/18 06:32:41;;;;;;;5.82;3.78;;;;;;;26.51;65.06;99060.44;4480267;31;20508;-67
2023/07/18 06:35:10;;;;;;;5.90;3.53;;;;;;;26.84;65.04;99072.50;4481148;32;20125;-67
2023/07/18 06:37:41;;;;;;;8.77;4.00;;;;;;;26.94;65.08;99072.72;4480388;31;20145;-67
2023/07/18 06:40:11;;;;;;;9.38;3.78;;;;;;;27.07;64.17;99080.53;4480285;32;20123;-67
2023/07/18 06:42:39;;;;;;;7.07;4.05;;;;;;;27.24;64.00;99088.66;4477232;32;20103;-67
2023/07/18 06:45:08;;;;;;;5.68;3.70;;;;;;;27.08;63.62;99084.84;4480384;31;20100;-67
2023/07/18 06:47:36;;;;;;;7.07;4.15;;;;;;;26.86;63.64;99091.88;4481378;31;20105;-67
2023/07/18 06:50:05;;;;;;;8.70;3.70;;;;;;;27.06;64.47;99095.03;4479658;31;20123;-67
2023/07/18 06:52:33;;;;;;;5.65;3.37;;;;;;;26.99;64.13;99094.31;4482674;31;20100;-67
2023/07/18 06:55:04;;;;;;;5.12;3.67;;;;;;;26.94;62.56;99093.41;4482951;31;20122;-67
2023/07/18 06:57:36;;;;;;;9.98;4.00;;;;;;;26.74;62.77;99098.09;4482682;31;20111;-67
2023/07/18 07:00:06;;;;;;;6.03;4.22;;;;;;;26.92;62.26;99099.03;4482361;31;20096;-67
2023/07/18 07:02:35;;;;;;;7.50;3.53;;;;;;;26.86;61.88;99103.47;4481321;31;20100;-67
2023/07/18 07:05:04;;;;;;;4.75;3.35;;;;;;;26.71;60.70;99109.31;4482370;31;20614;-67
2023/07/18 07:07:32;;;;;;;6.70;3.80;;;;;;;26.82;62.23;99109.56;4481024;31;20491;-67
2023/07/18 07:10:00;;;;;;;7.37;4.05;;;;;;;26.72;61.73;99108.28;4481901;31;20156;-67
2023/07/18 07:12:29;;;;;;;5.85;3.87;;;;;;;26.83;61.78;99116.56;4478629;31;20104;-67
2023/07/18 07:15:04;;;;;;;8.43;4.07;;;;;;;27.08;62.22;99119.78;4467657;31;20131;-67
2023/07/18 07:17:33;;;;;;;4.93;3.72;;;;;;;27.33;61.43;99123.28;4480277;31;20510;-67
2023/07/18 07:20:01;;;;;;;7.95;4.43;;;;;;;27.48;58.75;99122.78;4481249;31;20161;-67
2023/07/18 07:22:34;;;;;;;4.25;3.70;;;;;;;27.55;57.72;99107.31;4480581;31;20088;-67
2023/07/18 07:25:03;;;;;;;8.45;3.62;;;;;;;27.69;58.17;99105.97;4479877;31;20153;-68
2023/07/18 07:27:32;;;;;;;6.35;3.60;;;;;;;27.49;56.50;99109.06;4481336;31;20100;-67
2023/07/18 07:30:00;;;;;;;4.50;3.22;;;;;;;27.30;57.08;99107.59;4480434;32;20537;-68
2023/07/18 07:32:27;;;;;;;5.82;3.65;;;;;;;27.37;55.14;99111.00;4479744;31;20651;-67
2023/07/18 07:34:55;;;;;;;7.18;3.17;;;;;;;27.26;55.00;99109.94;4480049;32;20128;-67
2023/07/18 07:37:22;;;;;;;6.10;3.53;;;;;;;27.26;54.97;99118.81;4479593;32;20090;-68
2023/07/18 07:39:50;;;;;;;7.45;3.65;;;;;;;27.26;54.46;99120.72;4479547;31;20622;-68
2023/07/18 07:42:17;;;;;;;5.82;3.35;;;;;;;27.35;52.92;99124.69;4480927;31;20116;-67
2023/07/18 07:44:45;;;;;;;9.75;3.60;;;;;;;27.46;49.99;99131.09;4481323;32;20108;-68
2023/07/18 07:47:13;;;;;;;5.90;3.45;;;;;;;27.72;52.71;99124.34;4482949;31;20096;-68
2023/07/18 07:49:40;;;;;;;9.85;3.60;;;;;;;27.84;51.07;99121.56;4478948;31;20119;-68
2023/07/18 07:52:08;;;;;;;7.00;3.47;;;;;;;28.04;45.15;99131.94;4480628;31;20128;-67
2023/07/18 07:54:36;;;;;;;8.60;3.55;;;;;;;27.84;46.24;99140.41;4477748;31;20100;-68
2023/07/18 07:57:05;;;;;;;8.90;3.67;;;;;;;27.90;48.26;99131.38;4481912;31;20100;-68
2023/07/18 07:59:33;;;;;;;8.48;3.28;;;;;;;27.92;50.36;99134.66;4479839;31;20123;-68
2023/07/18 08:02:00;;;;;;;6.03;3.53;;;;;;;27.85;48.73;99142.06;4478527;32;20096;-68
2023/07/18 08:04:28;;;;;;;7.10;3.28;;;;;;;27.99;48.33;99131.03;4477022;32;20449;-68
2023/07/18 08:06:57;;;;;;;4.57;2.90;;;;;;;27.75;48.64;99134.63;4480496;31;20160;-68
2023/07/18 08:09:25;;;;;;;6.50;3.10;;;;;;;27.67;46.42;99147.63;4480437;31;20112;-68
2023/07/18 08:11:53;;;;;;;4.12;3.10;;;;;;;28.02;47.23;99135.91;4479555;31;20100;-68
2023/07/18 08:14:21;;;;;;;7.62;3.45;;;;;;;28.37;45.52;99137.56;4480376;31;20100;-68
2023/07/18 08:16:49;;;;;;;5.65;3.15;;;;;;;28.59;43.97;99129.56;4478238;31;20165;-67
2023/07/18 08:19:17;;;;;;;6.00;3.60;;;;;;;28.76;44.10;99135.78;4478602;31;20124;-68
2023/07/18 08:21:44;;;;;;;6.30;3.35;;;;;;;28.88;42.09;99129.47;4480128;31;20173;-68
2023/07/18 08:24:12;;;;;;;6.05;3.40;;;;;;;28.96;42.76;99118.25;4482116;31;20710;-69
2023/07/18 08:26:40;;;;;;;5.18;2.87;;;;;;;29.12;41.75;99120.09;4481516;31;20132;-68
2023/07/18 08:29:07;;;;;;;6.93;3.35;;;;;;;29.20;41.85;99129.63;4479850;31;20209;-68
2023/07/18 08:31:35;;;;;;;5.45;3.28;;;;;;;28.92;41.39;99123.34;4482552;31;20157;-68
2023/07/18 08:34:04;;;;;;;4.78;2.95;;;;;;;29.15;40.23;99124.19;4478471;31;20162;-69
2023/07/18 08:36:34;;;;;;;7.03;3.87;;;;;;;28.83;40.09;99124.84;4477873;31;20608;-68
2023/07/18 08:39:05;;;;;;;5.93;3.25;;;;;;;28.32;40.71;99114.06;4481604;31;20537;-68
2023/07/18 08:41:43;;;;;;;6.43;3.50;;;;;;;28.30;40.51;99116.19;4475989;31;20087;-68
2023/07/18 08:44:17;;;;;;;6.05;3.10;;;;;;;27.96;40.48;99125.06;4480245;31;20108;-69
2023/07/18 08:46:46;;;;;;;5.30;2.55;;;;;;;28.47;39.72;99130.47;4480778;31;20097;-69
2023/07/18 08:49:17;;;;;;;6.40;3.10;;;;;;;28.57;39.71;99123.59;4480900;31;20682;-69
2023/07/18 08:51:45;;;;;;;7.10;3.28;;;;;;;28.62;40.23;99123.72;4480566;31;20176;-69
2023/07/18 08:54:14;;;;;;;7.53;3.28;;;;;;;29.11;40.71;99117.63;4480439;31;20156;-69
2023/07/18 08:56:43;;;;;;;7.03;3.45;;;;;;;29.29;39.35;99113.84;4478418;31;20483;-69
2023/07/18 08:59:16;;;;;;;11.93;3.03;;;;;;;29.13;39.05;99124.44;4477907;31;20104;-69
2023/07/18 09:01:47;;;;;;;6.18;3.03;;;;;;;29.28;39.43;99121.12;4478414;31;20209;-69
2023/07/18 09:04:20;;;;;;;5.90;3.20;;;;;;;29.19;36.74;99125.28;4479920;31;20869;-69
2023/07/18 09:06:59;;;;;;;6.55;3.30;;;;;;;29.40;37.45;99126.38;4480770;31;20815;-69
2023/07/18 09:09:27;;;;;;;8.32;3.03;;;;;;;29.17;36.44;99114.75;4477862;31;20474;-69
2023/07/18 09:11:58;;;;;;;7.80;3.00;;;;;;;29.36;36.81;99126.09;4478473;31;20153;-69
2023/07/18 09:14:34;;;;;;;5.50;3.33;;;;;;;29.73;37.04;99128.09;4478947;31;20593;-68
2023/07/18 09:17:03;;;;;;;4.55;2.83;;;;;;;29.93;34.67;99124.00;4482225;31;20114;-68
2023/07/18 09:19:42;;;;;;;7.78;3.50;;;;;;;30.01;34.82;99111.91;4481507;31;20232;-68
2023/07/18 09:22:11;;;;;;;6.10;3.10;;;;;;;30.25;34.33;99118.63;4476405;31;20145;-68
2023/07/18 09:24:39;;;;;;;3.85;3.22;;;;;;;30.57;33.97;99106.97;4478994;31;20141;-69
2023/07/18 09:27:15;;;;;;;4.40;3.37;;;;;;;30.84;32.86;99113.34;4479157;31;20386;-67
2023/07/18 09:29:48;;;;;;;7.68;3.10;;;;;;;30.84;32.70;99111.47;4479252;31;20572;-67
2023/07/18 09:32:19;;;;;;;3.87;2.92;;;;;;;31.04;31.99;99107.25;4479551;31;20080;-67
2023/07/18 09:35:03;;;;;;;4.72;3.12;;;;;;;31.09;32.42;99107.28;4474035;31;20099;-67
2023/07/18 09:37:44;;;;;;;8.40;3.55;;;;;;;31.01;32.93;99105.06;4485588;31;20080;-67
2023/07/18 09:40:16;;;;;;;4.62;3.20;;;;;;;30.73;32.85;99101.66;4486309;31;20123;-67
2023/07/18 09:42:47;;;;;;;7.60;3.33;;;;;;;30.58;33.08;99095.09;4486255;31;20097;-66
2023/07/18 09:45:16;;;;;;;4.32;2.90;;;;;;;30.49;33.97;99088.53;4484711;31;20142;-66
2023/07/18 09:47:44;;;;;;;8.73;3.47;;;;;;;30.47;34.13;99085.28;4483957;31;20084;-66
2023/07/18 09:50:12;;;;;;;5.65;3.78;;;;;;;30.46;34.19;99080.94;4482261;31;20109;-67
2023/07/18 09:52:50;;;;;;;5.82;3.72;;;;;;;30.85;34.28;99080.63;4483207;31;20130;-66
2023/07/18 09:55:29;;;;;;;4.82;3.00;;;;;;;31.03;33.97;99078.59;4488816;31;20091;-66
2023/07/18 09:57:58;;;;;;;7.20;3.30;;;;;;;31.02;34.45;99068.81;4483677;31;20092;-67
2023/07/18 10:00:26;;;;;;;6.00;3.70;;;;;;;31.22;34.02;99063.50;4492105;31;20524;-67
2023/07/18 10:02:55;;;;;;;5.22;3.35;;;;;;;31.14;33.24;99064.00;4483323;31;20150;-66
2023/07/18 10:05:22;;;;;;;5.57;3.40;;;;;;;30.96;33.99;99057.13;4481894;31;20114;-67
2023/07/18 10:07:50;;;;;;;7.78;3.60;;;;;;;30.99;33.50;99061.25;4474691;31;20100;-67
2023/07/18 10:10:17;;;;;;;6.20;3.30;;;;;;;30.66;34.57;99061.34;4486749;31;20108;-67
2023/07/18 10:13:06;;;;;;;5.70;3.20;;;;;;;30.76;34.48;99057.84;4475526;31;20127;-66
2023/07/18 10:16:14;;;;;;;8.73;3.62;;;;;;;30.75;34.55;99059.75;4483449;31;20163;-66
2023/07/18 10:19:20;;;;;;;4.57;3.30;;;;;;;31.11;34.40;99062.66;4491442;31;20140;-68
2023/07/18 10:21:51;;;;;;;11.18;3.00;;;;;;;31.29;34.17;99063.22;4483928;31;20475;-68
2023/07/18 10:24:21;;;;;;;8.70;3.50;;;;;;;31.09;34.27;99058.56;4482333;31;20151;-67
2023/07/18 10:26:51;;;;;;;7.25;3.40;;;;;;;30.73;33.87;99051.06;4487202;31;20087;-67
2023/07/18 10:29:20;;;;;;;5.32;3.05;;;;;;;30.85;33.10;99045.44;4500257;31;20417;-68
2023/07/18 10:31:47;;;;;;;7.35;3.20;;;;;;;31.25;32.72;99052.12;4499385;31;20426;-67
2023/07/18 10:34:16;;;;;;;6.65;3.17;;;;;;;30.62;33.29;99046.69;4498816;31;20826;-67
2023/07/18 10:36:59;;;;;;;6.07;2.90;;;;;;;30.25;34.04;99037.53;4499875;31;20110;-65
2023/07/18 10:39:43;;;;;;;4.30;3.10;;;;;;;30.70;33.61;99038.06;4499852;31;20426;-66
2023/07/18 10:42:24;;;;;;;3.92;3.03;;;;;;;30.81;32.59;99038.94;4497091;31;20107;-67
2023/07/18 10:44:57;;;;;;;8.48;3.08;;;;;;;30.78;32.26;99032.19;4487925;31;20131;-66
2023/07/18 10:47:26;;;;;;;7.18;3.25;;;;;;;30.93;33.34;99042.25;4482117;31;20104;-67
2023/07/18 10:49:54;;;;;;;4.43;3.15;;;;;;;30.99;32.19;99034.19;4475574;31;20088;-66
2023/07/18 10:52:22;;;;;;;4.95;2.80;;;;;;;31.25;32.19;99035.91;4461254;32;20546;-67
2023/07/18 10:54:55;;;;;;;5.95;3.15;;;;;;;31.44;31.30;99046.22;4451495;32;20081;-66
2023/07/18 10:57:37;;;;;;;5.05;3.20;;;;;;;31.23;32.02;99038.03;4463938;32;20145;-66
2023/07/18 11:00:06;;;;;;;4.57;2.87;;;;;;;31.14;32.02;99035.06;4457839;32;20504;-66
2023/07/18 11:02:44;;;;;;;4.82;2.80;;;;;;;31.35;31.50;99024.25;4455566;32;20111;-66
2023/07/18 11:05:13;;;;;;;3.33;2.80;;;;;;;31.61;31.27;99019.75;4449398;32;20093;-67
2023/07/18 11:07:46;;;;;;;3.50;2.65;;;;;;;31.32;30.92;99013.97;4451846;32;20100;-67
2023/07/18 11:10:14;;;;;;;7.30;3.10;;;;;;;31.58;31.76;99011.31;4465012;32;20517;-66
2023/07/18 11:12:42;;;;;;;5.62;3.08;;;;;;;31.74;31.02;99010.25;4464830;32;20128;-67
2023/07/18 11:15:11;;;;;;;4.03;3.30;;;;;;;32.10;30.95;99010.28;4453097;32;20172;-67
2023/07/18 11:17:39;;;;;;;3.75;2.85;;;;;;;31.99;30.42;98998.59;4456979;32;20112;-67
2023/07/18 11:20:07;;;;;;;3.58;2.75;;;;;;;31.61;31.32;99005.38;4449444;32;20093;-67
2023/07/18 11:22:35;;;;;;;8.48;3.10;;;;;;;31.77;30.90;99008.91;4451237;32;20108;-67
2023/07/18 11:25:03;;;;;;;5.93;3.40;;;;;;;31.22;30.92;99003.13;4458289;32;20491;-68
2023/07/18 11:27:31;;;;;;;6.22;3.10;;;;;;;31.69;31.30;99001.31;4439623;32;20105;-67
2023/07/18 11:30:28;;;;;;;5.57;3.20;;;;;;;31.84;30.71;98998.59;4460643;32;20542;-67
2023/07/18 11:32:55;;;;;;;3.87;2.90;;;;;;;31.81;30.98;98994.56;4452598;32;20119;-67
2023/07/18 11:35:23;;;;;;;5.93;3.00;;;;;;;32.10;30.13;98991.28;4453724;32;20115;-67
2023/07/18 11:37:52;;;;;;;4.05;3.20;;;;;;;32.00;29.97;98981.25;4452802;32;20116;-67
2023/07/18 11:40:25;;;;;;;7.53;2.70;;;;;;;32.08;30.25;98981.78;4453523;32;20100;-67
2023/07/18 11:42:56;;;;;;;4.40;2.78;;;;;;;31.82;30.57;98979.91;4458558;32;20096;-67
2023/07/18 11:45:28;;;;;;;7.93;3.03;;;;;;;32.06;30.57;98979.34;4455565;32;20198;-67